sensor_id;sensor_type;location;lat;lon;timestamp;P1;durP1;ratioP1;P2;durP2;ratioP2
68577;SDS011;61668;45.388;11.784;2022-11-21T00:00:33;24.60;;;13.40;;
68577;SDS011;61668;45.388;11.784;2022-11-21T00:03:00;30.20;;;14.10;;
68577;SDS011;61668;45.388;11.784;2022-11-21T00:05:27;23.70;;;12.30;;
68577;SDS011;61668;45.388;11.784;2022-11-21T00:07:54;20.30;;;11.50;;
68577;SDS011;61668;45.388;11.784;2022-11-21T00:10:21;21.20;;;10.50;;
68577;SDS011;61668;45.388;11.784;2022-11-21T00:12:47;20.70;;;11.70;;
68577;SDS011;61668;45.388;11.784;2022-11-21T00:15:20;25.00;;;11.90;;
68577;SDS011;61668;45.388;11.784;2022-11-21T00:17:46;20.60;;;12.30;;
68577;SDS011;61668;45.388;11.784;2022-11-21T00:20:12;22.50;;;12.10;;
68577;SDS011;61668;45.388;11.784;2022-11-21T00:22:37;21.10;;;12.60;;
68577;SDS011;61668;45.388;11.784;2022-11-21T00:25:03;21.00;;;12.70;;
68577;SDS011;61668;45.388;11.784;2022-11-21T00:27:29;21.90;;;11.90;;
68577;SDS011;61668;45.388;11.784;2022-11-21T00:29:55;23.10;;;12.30;;
68577;SDS011;61668;45.388;11.784;2022-11-21T00:32:20;22.70;;;12.30;;
68577;SDS011;61668;45.388;11.784;2022-11-21T00:34:46;24.00;;;13.10;;
68577;SDS011;61668;45.388;11.784;2022-11-21T00:37:11;23.30;;;12.00;;
68577;SDS011;61668;45.388;11.784;2022-11-21T00:39:36;22.00;;;13.30;;
68577;SDS011;61668;45.388;11.784;2022-11-21T00:42:02;22.60;;;12.40;;
68577;SDS011;61668;45.388;11.784;2022-11-21T00:44:28;20.80;;;12.30;;
68577;SDS011;61668;45.388;11.784;2022-11-21T00:46:53;21.20;;;12.60;;
68577;SDS011;61668;45.388;11.784;2022-11-21T00:49:18;21.40;;;12.60;;
68577;SDS011;61668;45.388;11.784;2022-11-21T00:51:44;20.00;;;12.50;;
68577;SDS011;61668;45.388;11.784;2022-11-21T00:54:09;23.20;;;13.00;;
68577;SDS011;61668;45.388;11.784;2022-11-21T00:56:35;21.40;;;13.30;;
68577;SDS011;61668;45.388;11.784;2022-11-21T00:59:00;24.70;;;12.70;;
68577;SDS011;61668;45.388;11.784;2022-11-21T01:01:26;20.50;;;11.50;;
68577;SDS011;61668;45.388;11.784;2022-11-21T01:03:51;21.90;;;12.00;;
68577;SDS011;61668;45.388;11.784;2022-11-21T01:06:17;21.00;;;11.70;;
68577;SDS011;61668;45.388;11.784;2022-11-21T01:08:43;21.00;;;12.30;;
68577;SDS011;61668;45.388;11.784;2022-11-21T01:11:14;17.80;;;11.10;;
68577;SDS011;61668;45.388;11.784;2022-11-21T01:13:42;24.00;;;13.10;;
68577;SDS011;61668;45.388;11.784;2022-11-21T01:16:10;19.50;;;12.60;;
68577;SDS011;61668;45.388;11.784;2022-11-21T01:18:38;20.20;;;12.70;;
68577;SDS011;61668;45.388;11.784;2022-11-21T01:21:06;22.80;;;12.70;;
68577;SDS011;61668;45.388;11.784;2022-11-21T01:23:42;25.00;;;12.40;;
68577;SDS011;61668;45.388;11.784;2022-11-21T01:26:16;25.60;;;13.20;;
68577;SDS011;61668;45.388;11.784;2022-11-21T01:28:43;21.50;;;12.00;;
68577;SDS011;61668;45.388;11.784;2022-11-21T01:31:12;21.20;;;12.70;;
68577;SDS011;61668;45.388;11.784;2022-11-21T01:33:40;19.70;;;12.20;;
68577;SDS011;61668;45.388;11.784;2022-11-21T01:38:43;23.00;;;10.80;;
68577;SDS011;61668;45.388;11.784;2022-11-21T01:41:11;22.40;;;12.00;;
68577;SDS011;61668;45.388;11.784;2022-11-21T01:43:38;21.90;;;12.40;;
68577;SDS011;61668;45.388;11.784;2022-11-21T01:57:31;19.90;;;12.40;;
68577;SDS011;61668;45.388;11.784;2022-11-21T02:00:00;19.10;;;12.10;;
68577;SDS011;61668;45.388;11.784;2022-11-21T02:02:33;20.90;;;12.00;;
68577;SDS011;61668;45.388;11.784;2022-11-21T02:05:00;20.60;;;11.40;;
68577;SDS011;61668;45.388;11.784;2022-11-21T02:07:29;23.70;;;12.60;;
68577;SDS011;61668;45.388;11.784;2022-11-21T02:09:59;21.80;;;11.70;;
68577;SDS011;61668;45.388;11.784;2022-11-21T02:12:40;22.70;;;11.30;;
68577;SDS011;61668;45.388;11.784;2022-11-21T02:15:10;21.20;;;11.60;;
68577;SDS011;61668;45.388;11.784;2022-11-21T02:17:36;19.60;;;10.70;;
68577;SDS011;61668;45.388;11.784;2022-11-21T02:20:05;20.80;;;11.80;;
68577;SDS011;61668;45.388;11.784;2022-11-21T02:25:20;20.30;;;12.10;;
68577;SDS011;61668;45.388;11.784;2022-11-21T02:27:48;21.00;;;10.80;;
68577;SDS011;61668;45.388;11.784;2022-11-21T02:30:16;21.00;;;11.20;;
68577;SDS011;61668;45.388;11.784;2022-11-21T02:32:44;20.90;;;10.70;;
68577;SDS011;61668;45.388;11.784;2022-11-21T02:35:15;20.50;;;11.40;;
68577;SDS011;61668;45.388;11.784;2022-11-21T02:37:44;22.30;;;12.20;;
68577;SDS011;61668;45.388;11.784;2022-11-21T02:40:20;21.90;;;11.60;;
68577;SDS011;61668;45.388;11.784;2022-11-21T02:45:44;20.50;;;10.60;;
68577;SDS011;61668;45.388;11.784;2022-11-21T02:48:11;19.80;;;11.40;;
68577;SDS011;61668;45.388;11.784;2022-11-21T02:50:42;20.10;;;10.90;;
68577;SDS011;61668;45.388;11.784;2022-11-21T02:53:11;20.60;;;10.90;;
68577;SDS011;61668;45.388;11.784;2022-11-21T02:55:38;20.80;;;10.50;;
68577;SDS011;61668;45.388;11.784;2022-11-21T02:58:04;22.40;;;11.80;;
68577;SDS011;61668;45.388;11.784;2022-11-21T03:00:31;18.80;;;10.50;;
68577;SDS011;61668;45.388;11.784;2022-11-21T03:02:59;19.70;;;10.50;;
68577;SDS011;61668;45.388;11.784;2022-11-21T03:05:24;19.80;;;10.50;;
68577;SDS011;61668;45.388;11.784;2022-11-21T03:07:50;19.20;;;11.00;;
68577;SDS011;61668;45.388;11.784;2022-11-21T03:10:16;21.90;;;10.80;;
68577;SDS011;61668;45.388;11.784;2022-11-21T03:12:42;19.60;;;11.00;;
68577;SDS011;61668;45.388;11.784;2022-11-21T03:15:10;20.40;;;11.80;;
68577;SDS011;61668;45.388;11.784;2022-11-21T03:17:37;19.80;;;10.60;;
68577;SDS011;61668;45.388;11.784;2022-11-21T03:20:04;17.70;;;10.40;;
68577;SDS011;61668;45.388;11.784;2022-11-21T03:22:31;20.80;;;11.00;;
68577;SDS011;61668;45.388;11.784;2022-11-21T03:24:57;18.10;;;9.80;;
68577;SDS011;61668;45.388;11.784;2022-11-21T03:27:22;18.40;;;10.20;;
68577;SDS011;61668;45.388;11.784;2022-11-21T03:29:48;22.20;;;10.50;;
68577;SDS011;61668;45.388;11.784;2022-11-21T03:32:13;20.50;;;10.80;;
68577;SDS011;61668;45.388;11.784;2022-11-21T03:34:39;16.90;;;9.20;;
68577;SDS011;61668;45.388;11.784;2022-11-21T03:37:04;20.40;;;9.80;;
68577;SDS011;61668;45.388;11.784;2022-11-21T03:39:30;20.30;;;10.30;;
68577;SDS011;61668;45.388;11.784;2022-11-21T03:41:55;20.60;;;10.90;;
68577;SDS011;61668;45.388;11.784;2022-11-21T03:44:21;21.40;;;10.40;;
68577;SDS011;61668;45.388;11.784;2022-11-21T03:46:46;19.00;;;9.40;;
68577;SDS011;61668;45.388;11.784;2022-11-21T03:49:13;19.70;;;10.10;;
68577;SDS011;61668;45.388;11.784;2022-11-21T03:51:41;19.30;;;11.20;;
68577;SDS011;61668;45.388;11.784;2022-11-21T03:54:08;18.00;;;9.30;;
68577;SDS011;61668;45.388;11.784;2022-11-21T03:56:34;17.10;;;9.20;;
68577;SDS011;61668;45.388;11.784;2022-11-21T03:59:00;20.20;;;9.90;;
68577;SDS011;61668;45.388;11.784;2022-11-21T04:01:26;19.30;;;10.50;;
68577;SDS011;61668;45.388;11.784;2022-11-21T04:03:52;17.20;;;9.60;;
68577;SDS011;61668;45.388;11.784;2022-11-21T04:06:19;17.70;;;10.20;;
68577;SDS011;61668;45.388;11.784;2022-11-21T04:08:46;18.00;;;10.20;;
68577;SDS011;61668;45.388;11.784;2022-11-21T04:11:13;19.10;;;10.50;;
68577;SDS011;61668;45.388;11.784;2022-11-21T04:13:38;17.70;;;10.40;;
68577;SDS011;61668;45.388;11.784;2022-11-21T04:16:04;19.20;;;10.70;;
68577;SDS011;61668;45.388;11.784;2022-11-21T04:18:30;18.50;;;9.50;;
68577;SDS011;61668;45.388;11.784;2022-11-21T04:20:59;18.80;;;9.90;;
68577;SDS011;61668;45.388;11.784;2022-11-21T04:23:26;20.40;;;11.30;;
68577;SDS011;61668;45.388;11.784;2022-11-21T04:25:52;20.80;;;10.80;;
68577;SDS011;61668;45.388;11.784;2022-11-21T04:28:19;19.50;;;10.60;;
68577;SDS011;61668;45.388;11.784;2022-11-21T04:30:45;19.80;;;10.80;;
68577;SDS011;61668;45.388;11.784;2022-11-21T04:33:11;19.60;;;9.90;;
68577;SDS011;61668;45.388;11.784;2022-11-21T04:35:38;17.50;;;9.70;;
68577;SDS011;61668;45.388;11.784;2022-11-21T04:38:03;20.80;;;9.50;;
68577;SDS011;61668;45.388;11.784;2022-11-21T04:40:29;18.90;;;9.30;;
68577;SDS011;61668;45.388;11.784;2022-11-21T04:42:54;19.00;;;9.70;;
68577;SDS011;61668;45.388;11.784;2022-11-21T04:45:20;19.90;;;9.90;;
68577;SDS011;61668;45.388;11.784;2022-11-21T04:47:46;16.90;;;9.10;;
68577;SDS011;61668;45.388;11.784;2022-11-21T04:50:16;19.80;;;11.30;;
68577;SDS011;61668;45.388;11.784;2022-11-21T04:52:49;20.70;;;11.10;;
68577;SDS011;61668;45.388;11.784;2022-11-21T04:55:19;18.60;;;8.80;;
68577;SDS011;61668;45.388;11.784;2022-11-21T04:57:46;20.40;;;11.40;;
68577;SDS011;61668;45.388;11.784;2022-11-21T05:00:13;19.40;;;9.90;;
68577;SDS011;61668;45.388;11.784;2022-11-21T05:02:40;18.00;;;9.80;;
68577;SDS011;61668;45.388;11.784;2022-11-21T05:05:05;17.90;;;9.80;;
68577;SDS011;61668;45.388;11.784;2022-11-21T05:07:31;17.10;;;8.70;;
68577;SDS011;61668;45.388;11.784;2022-11-21T05:09:56;16.70;;;10.10;;
68577;SDS011;61668;45.388;11.784;2022-11-21T05:12:22;20.30;;;10.30;;
68577;SDS011;61668;45.388;11.784;2022-11-21T05:15:07;18.30;;;10.20;;
68577;SDS011;61668;45.388;11.784;2022-11-21T05:17:33;20.60;;;10.60;;
68577;SDS011;61668;45.388;11.784;2022-11-21T05:19:58;19.70;;;10.10;;
68577;SDS011;61668;45.388;11.784;2022-11-21T05:22:24;19.00;;;9.50;;
68577;SDS011;61668;45.388;11.784;2022-11-21T05:24:50;16.80;;;9.90;;
68577;SDS011;61668;45.388;11.784;2022-11-21T05:27:15;16.60;;;8.80;;
68577;SDS011;61668;45.388;11.784;2022-11-21T05:29:41;15.90;;;9.70;;
68577;SDS011;61668;45.388;11.784;2022-11-21T05:32:06;17.90;;;9.70;;
68577;SDS011;61668;45.388;11.784;2022-11-21T05:34:31;17.70;;;9.70;;
68577;SDS011;61668;45.388;11.784;2022-11-21T05:36:57;17.30;;;10.60;;
68577;SDS011;61668;45.388;11.784;2022-11-21T05:39:23;20.60;;;9.90;;
68577;SDS011;61668;45.388;11.784;2022-11-21T05:41:49;18.30;;;10.60;;
68577;SDS011;61668;45.388;11.784;2022-11-21T05:44:16;20.00;;;10.00;;
68577;SDS011;61668;45.388;11.784;2022-11-21T05:46:41;18.20;;;8.70;;
68577;SDS011;61668;45.388;11.784;2022-11-21T05:49:07;23.00;;;13.00;;
68577;SDS011;61668;45.388;11.784;2022-11-21T05:51:33;19.60;;;10.50;;
68577;SDS011;61668;45.388;11.784;2022-11-21T05:53:59;16.20;;;9.40;;
68577;SDS011;61668;45.388;11.784;2022-11-21T05:56:24;19.40;;;9.50;;
68577;SDS011;61668;45.388;11.784;2022-11-21T05:58:50;20.90;;;9.90;;
68577;SDS011;61668;45.388;11.784;2022-11-21T06:01:18;16.70;;;9.20;;
68577;SDS011;61668;45.388;11.784;2022-11-21T06:04:04;20.00;;;9.20;;
68577;SDS011;61668;45.388;11.784;2022-11-21T06:06:30;21.10;;;10.30;;
68577;SDS011;61668;45.388;11.784;2022-11-21T06:08:55;19.70;;;9.70;;
68577;SDS011;61668;45.388;11.784;2022-11-21T06:11:21;17.50;;;9.20;;
68577;SDS011;61668;45.388;11.784;2022-11-21T06:13:46;17.70;;;8.50;;
68577;SDS011;61668;45.388;11.784;2022-11-21T06:16:14;17.60;;;8.70;;
68577;SDS011;61668;45.388;11.784;2022-11-21T06:18:42;17.00;;;8.80;;
68577;SDS011;61668;45.388;11.784;2022-11-21T06:21:13;18.50;;;9.40;;
68577;SDS011;61668;45.388;11.784;2022-11-21T06:23:40;15.80;;;9.40;;
68577;SDS011;61668;45.388;11.784;2022-11-21T06:26:09;17.00;;;9.10;;
68577;SDS011;61668;45.388;11.784;2022-11-21T06:28:38;18.50;;;9.70;;
68577;SDS011;61668;45.388;11.784;2022-11-21T06:31:06;17.70;;;9.60;;
68577;SDS011;61668;45.388;11.784;2022-11-21T06:33:34;18.40;;;9.40;;
68577;SDS011;61668;45.388;11.784;2022-11-21T06:36:06;20.40;;;11.30;;
68577;SDS011;61668;45.388;11.784;2022-11-21T06:38:35;46.00;;;25.60;;
68577;SDS011;61668;45.388;11.784;2022-11-21T06:41:15;23.10;;;15.10;;
68577;SDS011;61668;45.388;11.784;2022-11-21T06:43:42;22.80;;;12.90;;
68577;SDS011;61668;45.388;11.784;2022-11-21T06:46:09;22.20;;;12.50;;
68577;SDS011;61668;45.388;11.784;2022-11-21T06:48:36;22.70;;;12.90;;
68577;SDS011;61668;45.388;11.784;2022-11-21T06:51:13;22.40;;;11.70;;
68577;SDS011;61668;45.388;11.784;2022-11-21T06:53:41;22.90;;;10.60;;
68577;SDS011;61668;45.388;11.784;2022-11-21T06:56:07;19.30;;;10.80;;
68577;SDS011;61668;45.388;11.784;2022-11-21T06:58:32;19.10;;;11.40;;
68577;SDS011;61668;45.388;11.784;2022-11-21T07:01:03;20.50;;;11.00;;
68577;SDS011;61668;45.388;11.784;2022-11-21T07:03:30;19.50;;;10.30;;
68577;SDS011;61668;45.388;11.784;2022-11-21T07:05:55;18.30;;;10.60;;
68577;SDS011;61668;45.388;11.784;2022-11-21T07:08:24;21.90;;;10.30;;
68577;SDS011;61668;45.388;11.784;2022-11-21T07:10:51;18.40;;;10.20;;
68577;SDS011;61668;45.388;11.784;2022-11-21T07:13:16;17.60;;;10.20;;
68577;SDS011;61668;45.388;11.784;2022-11-21T07:15:50;19.30;;;9.60;;
68577;SDS011;61668;45.388;11.784;2022-11-21T07:18:21;16.30;;;10.00;;
68577;SDS011;61668;45.388;11.784;2022-11-21T07:20:47;19.50;;;10.50;;
68577;SDS011;61668;45.388;11.784;2022-11-21T07:23:13;16.90;;;10.60;;
68577;SDS011;61668;45.388;11.784;2022-11-21T07:25:40;19.80;;;11.50;;
68577;SDS011;61668;45.388;11.784;2022-11-21T07:28:06;19.20;;;11.70;;
68577;SDS011;61668;45.388;11.784;2022-11-21T07:30:33;20.30;;;12.80;;
68577;SDS011;61668;45.388;11.784;2022-11-21T07:33:04;21.90;;;11.80;;
68577;SDS011;61668;45.388;11.784;2022-11-21T07:35:32;21.30;;;12.20;;
68577;SDS011;61668;45.388;11.784;2022-11-21T07:37:59;17.80;;;10.40;;
68577;SDS011;61668;45.388;11.784;2022-11-21T07:40:24;19.30;;;11.40;;
68577;SDS011;61668;45.388;11.784;2022-11-21T07:42:50;17.90;;;10.10;;
68577;SDS011;61668;45.388;11.784;2022-11-21T07:45:16;17.30;;;10.00;;
68577;SDS011;61668;45.388;11.784;2022-11-21T07:47:42;16.60;;;10.00;;
68577;SDS011;61668;45.388;11.784;2022-11-21T07:50:08;16.30;;;9.50;;
68577;SDS011;61668;45.388;11.784;2022-11-21T07:52:35;16.10;;;9.60;;
68577;SDS011;61668;45.388;11.784;2022-11-21T07:55:01;16.10;;;9.80;;
68577;SDS011;61668;45.388;11.784;2022-11-21T07:57:28;19.20;;;10.10;;
68577;SDS011;61668;45.388;11.784;2022-11-21T07:59:54;16.90;;;8.50;;
68577;SDS011;61668;45.388;11.784;2022-11-21T08:02:26;17.00;;;9.00;;
68577;SDS011;61668;45.388;11.784;2022-11-21T08:04:53;17.80;;;8.60;;
68577;SDS011;61668;45.388;11.784;2022-11-21T08:07:20;16.70;;;7.60;;
68577;SDS011;61668;45.388;11.784;2022-11-21T08:09:47;17.50;;;9.00;;
68577;SDS011;61668;45.388;11.784;2022-11-21T08:12:13;15.00;;;7.70;;
68577;SDS011;61668;45.388;11.784;2022-11-21T08:14:39;15.30;;;8.30;;
68577;SDS011;61668;45.388;11.784;2022-11-21T08:17:06;15.20;;;8.40;;
68577;SDS011;61668;45.388;11.784;2022-11-21T08:19:31;16.60;;;8.70;;
68577;SDS011;61668;45.388;11.784;2022-11-21T08:21:57;18.60;;;9.60;;
68577;SDS011;61668;45.388;11.784;2022-11-21T08:24:23;16.20;;;8.50;;
68577;SDS011;61668;45.388;11.784;2022-11-21T08:26:49;15.40;;;8.00;;
68577;SDS011;61668;45.388;11.784;2022-11-21T08:29:15;15.10;;;8.60;;
68577;SDS011;61668;45.388;11.784;2022-11-21T08:31:40;17.00;;;9.90;;
68577;SDS011;61668;45.388;11.784;2022-11-21T08:34:07;18.30;;;9.00;;
68577;SDS011;61668;45.388;11.784;2022-11-21T08:36:33;16.30;;;9.00;;
68577;SDS011;61668;45.388;11.784;2022-11-21T08:38:59;15.90;;;8.10;;
68577;SDS011;61668;45.388;11.784;2022-11-21T08:41:24;16.10;;;8.00;;
68577;SDS011;61668;45.388;11.784;2022-11-21T08:44:08;14.90;;;8.40;;
68577;SDS011;61668;45.388;11.784;2022-11-21T08:46:34;14.60;;;8.40;;
68577;SDS011;61668;45.388;11.784;2022-11-21T08:49:07;15.70;;;7.90;;
68577;SDS011;61668;45.388;11.784;2022-11-21T08:51:34;14.40;;;8.20;;
68577;SDS011;61668;45.388;11.784;2022-11-21T08:54:00;13.30;;;7.20;;
68577;SDS011;61668;45.388;11.784;2022-11-21T08:56:26;17.00;;;8.90;;
68577;SDS011;61668;45.388;11.784;2022-11-21T08:58:52;12.60;;;6.90;;
68577;SDS011;61668;45.388;11.784;2022-11-21T09:01:17;12.90;;;6.70;;
68577;SDS011;61668;45.388;11.784;2022-11-21T09:03:43;14.40;;;8.00;;
68577;SDS011;61668;45.388;11.784;2022-11-21T09:06:08;14.70;;;8.70;;
68577;SDS011;61668;45.388;11.784;2022-11-21T09:08:34;13.60;;;7.60;;
68577;SDS011;61668;45.388;11.784;2022-11-21T09:11:04;14.50;;;9.30;;
68577;SDS011;61668;45.388;11.784;2022-11-21T09:13:31;13.20;;;7.50;;
68577;SDS011;61668;45.388;11.784;2022-11-21T09:15:58;13.70;;;7.60;;
68577;SDS011;61668;45.388;11.784;2022-11-21T09:18:42;16.60;;;8.70;;
68577;SDS011;61668;45.388;11.784;2022-11-21T09:21:08;15.70;;;10.10;;
68577;SDS011;61668;45.388;11.784;2022-11-21T09:23:33;17.30;;;12.70;;
68577;SDS011;61668;45.388;11.784;2022-11-21T09:25:59;13.50;;;8.30;;
68577;SDS011;61668;45.388;11.784;2022-11-21T09:28:25;12.80;;;6.80;;
68577;SDS011;61668;45.388;11.784;2022-11-21T09:30:50;9.80;;;5.10;;
68577;SDS011;61668;45.388;11.784;2022-11-21T09:33:16;11.50;;;5.60;;
68577;SDS011;61668;45.388;11.784;2022-11-21T09:35:42;10.40;;;4.60;;
68577;SDS011;61668;45.388;11.784;2022-11-21T09:38:08;9.00;;;3.90;;
68577;SDS011;61668;45.388;11.784;2022-11-21T09:40:34;11.00;;;5.60;;
68577;SDS011;61668;45.388;11.784;2022-11-21T09:46:09;11.00;;;5.40;;
68577;SDS011;61668;45.388;11.784;2022-11-21T09:48:55;14.00;;;11.20;;
68577;SDS011;61668;45.388;11.784;2022-11-21T09:51:24;12.00;;;6.50;;
68577;SDS011;61668;45.388;11.784;2022-11-21T09:54:04;11.20;;;5.80;;
68577;SDS011;61668;45.388;11.784;2022-11-21T09:56:56;11.60;;;6.10;;
68577;SDS011;61668;45.388;11.784;2022-11-21T09:59:34;12.10;;;5.60;;
68577;SDS011;61668;45.388;11.784;2022-11-21T10:02:07;18.20;;;8.30;;
68577;SDS011;61668;45.388;11.784;2022-11-21T10:04:38;26.20;;;13.60;;
68577;SDS011;61668;45.388;11.784;2022-11-21T10:07:18;14.90;;;6.70;;
68577;SDS011;61668;45.388;11.784;2022-11-21T10:15:34;16.20;;;7.40;;
68577;SDS011;61668;45.388;11.784;2022-11-21T10:18:10;14.20;;;6.80;;
68577;SDS011;61668;45.388;11.784;2022-11-21T10:27:01;15.20;;;8.10;;
68577;SDS011;61668;45.388;11.784;2022-11-21T10:32:33;16.50;;;8.30;;
68577;SDS011;61668;45.388;11.784;2022-11-21T10:35:24;18.50;;;9.10;;
68577;SDS011;61668;45.388;11.784;2022-11-21T10:38:01;18.50;;;8.50;;
68577;SDS011;61668;45.388;11.784;2022-11-21T10:40:45;21.30;;;10.00;;
68577;SDS011;61668;45.388;11.784;2022-11-21T10:43:38;22.00;;;11.20;;
68577;SDS011;61668;45.388;11.784;2022-11-21T10:46:23;21.40;;;11.90;;
68577;SDS011;61668;45.388;11.784;2022-11-21T10:48:55;23.40;;;12.20;;
68577;SDS011;61668;45.388;11.784;2022-11-21T10:51:37;22.90;;;12.30;;
68577;SDS011;61668;45.388;11.784;2022-11-21T10:54:10;21.60;;;12.00;;
68577;SDS011;61668;45.388;11.784;2022-11-21T10:57:12;25.60;;;13.60;;
68577;SDS011;61668;45.388;11.784;2022-11-21T10:59:40;23.20;;;12.30;;
68577;SDS011;61668;45.388;11.784;2022-11-21T11:04:38;24.80;;;14.50;;
68577;SDS011;61668;45.388;11.784;2022-11-21T11:07:22;25.50;;;12.40;;
68577;SDS011;61668;45.388;11.784;2022-11-21T11:09:50;20.90;;;12.10;;
68577;SDS011;61668;45.388;11.784;2022-11-21T11:12:28;24.70;;;11.90;;
68577;SDS011;61668;45.388;11.784;2022-11-21T11:15:25;21.50;;;11.70;;
68577;SDS011;61668;45.388;11.784;2022-11-21T11:17:57;22.30;;;12.50;;
68577;SDS011;61668;45.388;11.784;2022-11-21T11:20:34;23.20;;;13.30;;
68577;SDS011;61668;45.388;11.784;2022-11-21T11:25:59;25.00;;;11.80;;
68577;SDS011;61668;45.388;11.784;2022-11-21T11:28:33;25.60;;;12.80;;
68577;SDS011;61668;45.388;11.784;2022-11-21T11:31:00;24.80;;;12.80;;
68577;SDS011;61668;45.388;11.784;2022-11-21T11:38:54;24.30;;;13.70;;
68577;SDS011;61668;45.388;11.784;2022-11-21T11:47:51;24.50;;;13.00;;
68577;SDS011;61668;45.388;11.784;2022-11-21T11:50:25;24.40;;;11.60;;
68577;SDS011;61668;45.388;11.784;2022-11-21T11:53:12;24.80;;;13.20;;
68577;SDS011;61668;45.388;11.784;2022-11-21T11:55:44;25.30;;;13.40;;
68577;SDS011;61668;45.388;11.784;2022-11-21T11:58:17;24.10;;;13.10;;
68577;SDS011;61668;45.388;11.784;2022-11-21T12:00:56;26.90;;;13.60;;
68577;SDS011;61668;45.388;11.784;2022-11-21T12:06:51;26.00;;;12.50;;
68577;SDS011;61668;45.388;11.784;2022-11-21T12:11:55;24.40;;;12.60;;
68577;SDS011;61668;45.388;11.784;2022-11-21T12:18:18;22.70;;;12.30;;
68577;SDS011;61668;45.388;11.784;2022-11-21T12:21:11;25.90;;;13.40;;
68577;SDS011;61668;45.388;11.784;2022-11-21T12:23:49;24.30;;;12.90;;
68577;SDS011;61668;45.388;11.784;2022-11-21T12:32:53;26.90;;;13.90;;
68577;SDS011;61668;45.388;11.784;2022-11-21T12:49:51;26.50;;;13.30;;
68577;SDS011;61668;45.388;11.784;2022-11-21T12:52:56;28.80;;;14.40;;
68577;SDS011;61668;45.388;11.784;2022-11-21T12:56:00;253.40;;;90.40;;
68577;SDS011;61668;45.388;11.784;2022-11-21T12:58:33;113.40;;;41.40;;
68577;SDS011;61668;45.388;11.784;2022-11-21T13:01:14;129.70;;;43.00;;
68577;SDS011;61668;45.388;11.784;2022-11-21T13:04:08;30.10;;;15.30;;
68577;SDS011;61668;45.388;11.784;2022-11-21T13:06:41;30.60;;;16.10;;
68577;SDS011;61668;45.388;11.784;2022-11-21T13:09:12;27.90;;;15.70;;
68577;SDS011;61668;45.388;11.784;2022-11-21T13:18:55;66.80;;;34.40;;
68577;SDS011;61668;45.388;11.784;2022-11-21T13:20:52;33.20;;;16.70;;
68577;SDS011;61668;45.388;11.784;2022-11-21T13:23:35;30.30;;;14.30;;
68577;SDS011;61668;45.388;11.784;2022-11-21T13:28:48;30.50;;;17.90;;
68577;SDS011;61668;45.388;11.784;2022-11-21T13:31:31;26.30;;;16.50;;
68577;SDS011;61668;45.388;11.784;2022-11-21T13:33:58;23.30;;;13.20;;
68577;SDS011;61668;45.388;11.784;2022-11-21T13:50:07;27.10;;;15.30;;
68577;SDS011;61668;45.388;11.784;2022-11-21T14:02:29;27.60;;;16.10;;
68577;SDS011;61668;45.388;11.784;2022-11-21T14:07:53;26.70;;;14.90;;
68577;SDS011;61668;45.388;11.784;2022-11-21T14:13:01;34.70;;;17.20;;
68577;SDS011;61668;45.388;11.784;2022-11-21T14:18:20;31.10;;;16.00;;
68577;SDS011;61668;45.388;11.784;2022-11-21T14:20:51;29.30;;;15.60;;
68577;SDS011;61668;45.388;11.784;2022-11-21T14:23:22;34.50;;;18.20;;
68577;SDS011;61668;45.388;11.784;2022-11-21T14:25:53;32.10;;;17.40;;
68577;SDS011;61668;45.388;11.784;2022-11-21T14:28:24;31.20;;;15.00;;
68577;SDS011;61668;45.388;11.784;2022-11-21T14:30:57;30.50;;;16.40;;
68577;SDS011;61668;45.388;11.784;2022-11-21T14:33:35;37.50;;;18.40;;
68577;SDS011;61668;45.388;11.784;2022-11-21T14:38:44;35.40;;;19.30;;
68577;SDS011;61668;45.388;11.784;2022-11-21T14:43:42;34.40;;;18.30;;
68577;SDS011;61668;45.388;11.784;2022-11-21T14:46:14;38.60;;;20.50;;
68577;SDS011;61668;45.388;11.784;2022-11-21T14:48:41;35.10;;;22.10;;
68577;SDS011;61668;45.388;11.784;2022-11-21T14:51:08;33.80;;;17.80;;
68577;SDS011;61668;45.388;11.784;2022-11-21T14:53:39;38.70;;;20.60;;
68577;SDS011;61668;45.388;11.784;2022-11-21T14:56:09;46.00;;;24.70;;
68577;SDS011;61668;45.388;11.784;2022-11-21T14:58:38;39.20;;;22.50;;
68577;SDS011;61668;45.388;11.784;2022-11-21T15:01:23;46.90;;;26.80;;
68577;SDS011;61668;45.388;11.784;2022-11-21T15:04:16;40.70;;;23.60;;
68577;SDS011;61668;45.388;11.784;2022-11-21T15:06:51;40.20;;;22.90;;
68577;SDS011;61668;45.388;11.784;2022-11-21T15:09:16;47.80;;;27.10;;
68577;SDS011;61668;45.388;11.784;2022-11-21T15:11:59;45.10;;;25.60;;
68577;SDS011;61668;45.388;11.784;2022-11-21T15:14:33;38.30;;;23.20;;
68577;SDS011;61668;45.388;11.784;2022-11-21T15:17:07;53.90;;;34.70;;
68577;SDS011;61668;45.388;11.784;2022-11-21T15:19:37;48.60;;;27.00;;
68577;SDS011;61668;45.388;11.784;2022-11-21T15:22:03;41.00;;;22.90;;
68577;SDS011;61668;45.388;11.784;2022-11-21T15:24:38;42.00;;;23.00;;
68577;SDS011;61668;45.388;11.784;2022-11-21T15:28:02;37.70;;;20.30;;
68577;SDS011;61668;45.388;11.784;2022-11-21T15:30:34;46.00;;;22.00;;
68577;SDS011;61668;45.388;11.784;2022-11-21T15:33:18;41.80;;;22.90;;
68577;SDS011;61668;45.388;11.784;2022-11-21T15:40:57;44.90;;;26.30;;
68577;SDS011;61668;45.388;11.784;2022-11-21T15:46:36;41.10;;;24.70;;
68577;SDS011;61668;45.388;11.784;2022-11-21T15:49:10;36.70;;;22.00;;
68577;SDS011;61668;45.388;11.784;2022-11-21T15:51:41;37.00;;;18.50;;
68577;SDS011;61668;45.388;11.784;2022-11-21T15:54:18;35.80;;;18.30;;
68577;SDS011;61668;45.388;11.784;2022-11-21T15:56:45;36.40;;;18.50;;
68577;SDS011;61668;45.388;11.784;2022-11-21T15:59:14;40.40;;;18.90;;
68577;SDS011;61668;45.388;11.784;2022-11-21T16:01:40;41.20;;;19.60;;
68577;SDS011;61668;45.388;11.784;2022-11-21T16:04:09;40.20;;;19.80;;
68577;SDS011;61668;45.388;11.784;2022-11-21T16:06:36;40.70;;;21.20;;
68577;SDS011;61668;45.388;11.784;2022-11-21T16:09:02;40.20;;;20.50;;
68577;SDS011;61668;45.388;11.784;2022-11-21T16:11:35;37.70;;;20.00;;
68577;SDS011;61668;45.388;11.784;2022-11-21T16:14:03;43.90;;;21.00;;
68577;SDS011;61668;45.388;11.784;2022-11-21T16:16:32;57.60;;;32.50;;
68577;SDS011;61668;45.388;11.784;2022-11-21T16:19:01;54.70;;;27.20;;
68577;SDS011;61668;45.388;11.784;2022-11-21T16:21:26;52.90;;;28.30;;
68577;SDS011;61668;45.388;11.784;2022-11-21T16:23:53;47.20;;;25.80;;
68577;SDS011;61668;45.388;11.784;2022-11-21T16:26:19;50.60;;;26.30;;
68577;SDS011;61668;45.388;11.784;2022-11-21T16:28:45;54.70;;;28.50;;
68577;SDS011;61668;45.388;11.784;2022-11-21T16:31:21;53.90;;;25.60;;
68577;SDS011;61668;45.388;11.784;2022-11-21T16:33:48;54.80;;;27.50;;
68577;SDS011;61668;45.388;11.784;2022-11-21T16:36:21;67.50;;;32.40;;
68577;SDS011;61668;45.388;11.784;2022-11-21T16:38:47;71.90;;;33.30;;
68577;SDS011;61668;45.388;11.784;2022-11-21T16:41:15;53.50;;;25.80;;
68577;SDS011;61668;45.388;11.784;2022-11-21T16:43:54;47.50;;;24.60;;
68577;SDS011;61668;45.388;11.784;2022-11-21T16:46:22;46.40;;;23.20;;
68577;SDS011;61668;45.388;11.784;2022-11-21T16:48:56;47.20;;;24.30;;